Time;durP1;ratioP1;P1;durP2;ratioP2;P2;SDS_P1;SDS_P2;PMS_P1;PMS_P2;Temp;Humidity;BMP_temperature;BMP_pressure;BME280_temperature;BME280_humidity;BME280_pressure;Samples;Min_cycle;Max_cycle;Signal;HPM_P1;HPM_P2
2023/06/28 03:59:53;;;;;;;1.10;1.10;;;15.10;99.90;;;;;;4957307;29;20319;-66
2023/06/28 04:02:20;;;;;;;1.20;1.20;;;15.10;99.90;;;;;;4958182;29;20216;-66
2023/06/28 04:04:47;;;;;;;1.10;1.10;;;15.10;99.90;;;;;;4958112;29;20243;-67
2023/06/28 04:07:15;;;;;;;1.10;1.10;;;15.10;99.90;;;;;;4958006;29;20231;-68
2023/06/28 04:09:43;;;;;;;1.50;1.40;;;15.10;99.90;;;;;;4957756;29;20660;-68
2023/06/28 04:12:10;;;;;;;1.60;1.50;;;15.00;99.90;;;;;;4958260;29;20699;-68
2023/06/28 04:14:36;;;;;;;1.20;1.20;;;15.00;99.90;;;;;;4957941;28;20216;-69
2023/06/28 04:17:05;;;;;;;1.25;1.15;;;15.00;99.90;;;;;;4957503;29;20227;-69
2023/06/28 04:19:31;;;;;;;1.35;1.33;;;14.90;99.90;;;;;;4957853;29;20295;-68
2023/06/28 04:21:58;;;;;;;1.30;1.30;;;14.90;99.90;;;;;;4957803;29;20204;-68
2023/06/28 04:24:25;;;;;;;1.40;1.30;;;14.90;99.90;;;;;;4958424;29;20211;-68
2023/06/28 04:26:51;;;;;;;1.33;1.23;;;14.90;99.90;;;;;;4957714;29;20232;-68
2023/06/28 04:29:18;;;;;;;1.30;1.30;;;14.90;99.90;;;;;;4957801;29;20195;-68
2023/06/28 04:31:45;;;;;;;1.23;1.23;;;14.90;99.90;;;;;;4957711;29;20291;-70
2023/06/28 04:34:13;;;;;;;1.10;1.10;;;14.90;99.90;;;;;;4957619;29;20211;-70
2023/06/28 04:36:40;;;;;;;1.15;1.15;;;14.90;99.90;;;;;;4957573;29;20224;-70
2023/06/28 04:39:07;;;;;;;1.20;1.20;;;14.90;99.90;;;;;;4957591;29;20204;-70
2023/06/28 04:41:33;;;;;;;0.95;0.95;;;14.90;99.90;;;;;;4957439;29;20578;-68
2023/06/28 04:44:00;;;;;;;1.50;1.40;;;14.90;99.90;;;;;;4957406;29;20208;-68
2023/06/28 04:46:27;;;;;;;1.38;1.38;;;14.90;99.90;;;;;;4957298;29;20224;-69
2023/06/28 04:48:55;;;;;;;1.60;1.60;;;14.90;99.90;;;;;;4957353;29;20607;-69
2023/06/28 04:51:23;;;;;;;1.52;1.52;;;14.90;99.90;;;;;;4957485;29;20203;-69
2023/06/28 04:53:50;;;;;;;1.38;1.35;;;14.90;99.90;;;;;;4957501;29;20204;-70
2023/06/28 04:56:18;;;;;;;1.73;1.63;;;15.00;99.90;;;;;;4957383;29;20204;-71
2023/06/28 04:58:44;;;;;;;1.27;1.27;;;15.00;99.90;;;;;;4957255;29;20204;-71
2023/06/28 05:01:11;;;;;;;1.58;1.20;;;15.00;99.90;;;;;;4956930;29;20192;-71
2023/06/28 05:03:39;;;;;;;1.55;1.48;;;15.00;99.90;;;;;;4957123;29;20667;-71
2023/06/28 05:06:06;;;;;;;1.60;1.50;;;15.00;99.90;;;;;;4956951;29;20224;-71
2023/06/28 05:08:35;;;;;;;1.52;1.50;;;15.10;99.90;;;;;;4957003;29;20200;-70
2023/06/28 05:11:02;;;;;;;1.30;1.30;;;15.10;99.90;;;;;;4956988;29;20215;-68
2023/06/28 05:13:29;;;;;;;1.33;1.30;;;15.10;99.90;;;;;;4956898;29;20212;-68
2023/06/28 05:15:56;;;;;;;1.83;1.75;;;15.10;99.90;;;;;;4956450;29;20200;-69
2023/06/28 05:18:23;;;;;;;1.42;1.42;;;15.20;99.90;;;;;;4956359;29;20703;-69
2023/06/28 05:20:49;;;;;;;1.30;1.20;;;15.20;99.90;;;;;;4956611;29;20239;-67
2023/06/28 05:23:17;;;;;;;1.35;1.35;;;15.20;99.90;;;;;;4956259;29;20579;-67
2023/06/28 05:25:46;;;;;;;1.58;1.48;;;15.30;99.90;;;;;;4956492;29;20275;-68
2023/06/28 05:28:14;;;;;;;1.38;1.27;;;15.30;99.90;;;;;;4955593;28;20235;-68
2023/06/28 05:30:42;;;;;;;1.48;1.48;;;15.40;99.90;;;;;;4956515;29;20212;-68
2023/06/28 05:33:10;;;;;;;1.25;1.25;;;15.40;99.90;;;;;;4956805;29;20215;-68
2023/06/28 05:35:37;;;;;;;1.75;1.65;;;15.50;99.90;;;;;;4956398;29;20271;-67
2023/06/28 05:38:05;;;;;;;1.60;1.60;;;15.50;99.90;;;;;;4956283;29;20593;-68
2023/06/28 05:40:32;;;;;;;1.60;1.50;;;15.50;99.90;;;;;;4956338;29;20215;-68
2023/06/28 05:43:01;;;;;;;1.70;1.60;;;15.60;99.90;;;;;;4956242;29;20257;-68
2023/06/28 05:45:28;;;;;;;1.40;1.40;;;15.60;99.90;;;;;;4956688;29;20568;-69
2023/06/28 05:47:56;;;;;;;1.48;1.48;;;15.70;99.90;;;;;;4957058;29;20228;-69
2023/06/28 05:50:23;;;;;;;1.30;1.30;;;15.70;99.90;;;;;;4956583;29;20200;-69
2023/06/28 05:52:50;;;;;;;1.52;1.42;;;15.80;99.90;;;;;;4956292;29;20204;-69
2023/06/28 05:55:17;;;;;;;1.42;1.42;;;15.80;99.90;;;;;;4956179;29;20211;-68
2023/06/28 05:57:45;;;;;;;1.17;1.17;;;15.80;99.90;;;;;;4956437;29;20275;-68
2023/06/28 06:00:14;;;;;;;1.40;1.40;;;15.90;99.90;;;;;;4957151;29;20212;-69
2023/06/28 06:02:41;;;;;;;1.70;1.60;;;15.90;99.90;;;;;;4956479;29;20207;-68
2023/06/28 06:05:13;;;;;;;1.70;1.60;;;16.00;99.90;;;;;;4956123;29;20207;-67
2023/06/28 06:07:40;;;;;;;1.60;1.50;;;16.00;99.90;;;;;;4955841;29;20358;-67
2023/06/28 06:10:08;;;;;;;1.48;1.40;;;16.10;99.90;;;;;;4955749;29;20239;-67
2023/06/28 06:12:35;;;;;;;1.38;1.38;;;16.20;99.90;;;;;;4955868;29;20235;-67
2023/06/28 06:15:02;;;;;;;1.48;1.48;;;16.30;99.90;;;;;;4955971;29;20215;-67
2023/06/28 06:17:30;;;;;;;1.75;1.65;;;16.40;99.90;;;;;;4955669;29;20227;-67
2023/06/28 06:19:57;;;;;;;1.50;1.40;;;16.50;99.90;;;;;;4955682;29;20208;-67
2023/06/28 06:22:24;;;;;;;1.63;1.50;;;16.60;99.90;;;;;;4955598;29;20207;-67
2023/06/28 06:24:50;;;;;;;1.33;1.33;;;16.70;99.90;;;;;;4955478;29;20214;-67
2023/06/28 06:27:17;;;;;;;1.65;1.55;;;16.90;99.90;;;;;;4955287;29;20224;-67
2023/06/28 06:29:43;;;;;;;1.85;1.75;;;16.90;99.90;;;;;;4955149;29;20604;-67
2023/06/28 06:32:10;;;;;;;2.67;2.10;;;17.00;99.90;;;;;;4955417;29;20208;-67
2023/06/28 06:34:39;;;;;;;1.70;1.52;;;17.10;99.90;;;;;;4955434;29;20199;-67
2023/06/28 06:37:11;;;;;;;1.92;1.33;;;17.20;99.90;;;;;;4955364;29;20310;-67
2023/06/28 06:39:38;;;;;;;2.17;1.58;;;17.40;99.90;;;;;;4955214;29;20196;-67
2023/06/28 06:42:05;;;;;;;3.20;1.63;;;17.40;99.90;;;;;;4955343;29;20211;-67
2023/06/28 06:44:32;;;;;;;2.63;1.80;;;17.50;99.90;;;;;;4955232;29;20543;-67
2023/06/28 06:46:59;;;;;;;3.03;1.55;;;17.50;99.90;;;;;;4955205;29;20239;-67
2023/06/28 06:49:25;;;;;;;1.70;1.60;;;17.60;99.90;;;;;;4955316;29;20203;-67
2023/06/28 06:51:54;;;;;;;1.48;1.40;;;17.70;99.90;;;;;;4955288;29;20199;-67
2023/06/28 06:54:20;;;;;;;2.17;1.70;;;17.90;99.90;;;;;;4955305;29;20259;-67
2023/06/28 06:56:47;;;;;;;1.17;1.17;;;18.10;99.90;;;;;;4955107;29;20220;-67
2023/06/28 06:59:16;;;;;;;1.25;1.25;;;18.30;99.90;;;;;;4954918;29;20622;-67
2023/06/28 07:01:43;;;;;;;1.85;1.75;;;18.40;99.90;;;;;;4955290;29;20247;-67
2023/06/28 07:04:09;;;;;;;1.63;1.52;;;18.50;99.90;;;;;;4955266;29;20203;-67
2023/06/28 07:06:37;;;;;;;1.48;1.23;;;18.70;99.90;;;;;;4955021;29;20286;-67
2023/06/28 07:09:05;;;;;;;1.38;1.38;;;18.90;99.90;;;;;;4954916;29;20199;-67
2023/06/28 07:11:32;;;;;;;1.52;1.42;;;19.10;99.90;;;;;;4955202;29;20206;-67
2023/06/28 07:13:58;;;;;;;1.60;1.50;;;19.20;99.90;;;;;;4955141;29;20203;-67
2023/06/28 07:16:25;;;;;;;1.77;1.67;;;19.50;99.90;;;;;;4955043;29;20196;-67
2023/06/28 07:18:54;;;;;;;2.10;1.70;;;19.90;99.90;;;;;;4955172;29;20547;-67
2023/06/28 07:21:20;;;;;;;1.55;1.45;;;20.20;99.90;;;;;;4955084;29;20258;-67
2023/06/28 07:23:47;;;;;;;1.70;1.60;;;20.50;99.90;;;;;;4955083;29;20207;-67
2023/06/28 07:26:15;;;;;;;2.08;1.63;;;20.80;99.90;;;;;;4954918;29;20231;-68
2023/06/28 07:28:42;;;;;;;2.25;2.00;;;21.10;99.90;;;;;;4955069;29;20262;-68
2023/06/28 07:31:09;;;;;;;3.28;1.70;;;21.40;99.90;;;;;;4954942;29;20571;-68
2023/06/28 07:33:35;;;;;;;1.42;1.33;;;21.80;99.90;;;;;;4955131;29;20219;-68
2023/06/28 07:36:02;;;;;;;2.25;1.88;;;22.00;99.90;;;;;;4955037;29;20199;-68
2023/06/28 07:38:29;;;;;;;1.70;1.60;;;22.30;99.90;;;;;;4954983;29;20224;-68
2023/06/28 07:40:55;;;;;;;1.65;1.55;;;22.90;99.90;;;;;;4955123;29;20203;-68
2023/06/28 07:43:24;;;;;;;2.00;1.30;;;23.60;99.90;;;;;;4955155;29;20250;-74
2023/06/28 07:45:51;;;;;;;1.23;1.17;;;24.30;99.90;;;;;;4954741;29;20694;-69
2023/06/28 07:48:18;;;;;;;1.80;1.70;;;24.70;99.90;;;;;;4954752;29;20594;-69
2023/06/28 07:50:47;;;;;;;1.23;1.20;;;25.50;96.70;;;;;;4956565;28;20200;-69
2023/06/28 07:53:14;;;;;;;1.52;1.25;;;25.80;94.90;;;;;;4958860;29;20214;-68
2023/06/28 07:55:41;;;;;;;2.85;1.45;;;26.20;89.80;;;;;;4959202;29;20672;-68
2023/06/28 07:58:07;;;;;;;2.78;1.52;;;25.80;89.00;;;;;;4961602;29;20219;-69
2023/06/28 08:00:35;;;;;;;1.08;1.08;;;26.00;91.10;;;;;;4975897;29;20207;-69
2023/06/28 08:03:02;;;;;;;1.30;1.30;;;26.40;89.70;;;;;;4974846;29;20200;-67
2023/06/28 08:05:30;;;;;;;1.90;1.45;;;26.80;83.80;;;;;;4958193;29;20206;-67
2023/06/28 08:07:56;;;;;;;2.38;1.23;;;26.90;78.10;;;;;;4957785;29;20255;-67
2023/06/28 08:10:25;;;;;;;1.40;1.08;;;27.00;83.00;;;;;;4958071;29;20209;-67
2023/06/28 08:12:52;;;;;;;1.33;1.02;;;27.00;76.10;;;;;;4957947;29;20207;-67
2023/06/28 08:15:19;;;;;;;3.05;1.25;;;26.80;78.60;;;;;;4957958;29;20294;-67
2023/06/28 08:17:47;;;;;;;1.00;1.00;;;26.60;75.60;;;;;;4957827;29;20365;-67
2023/06/28 08:20:14;;;;;;;1.20;1.10;;;26.30;79.80;;;;;;4957781;29;20207;-67
2023/06/28 08:22:41;;;;;;;1.33;1.23;;;26.20;74.10;;;;;;4957811;29;20203;-67
2023/06/28 08:25:08;;;;;;;2.05;1.17;;;25.90;75.90;;;;;;4957793;29;20611;-67
2023/06/28 08:27:34;;;;;;;2.05;1.30;;;25.80;73.80;;;;;;4958054;29;20297;-67
2023/06/28 08:30:01;;;;;;;1.05;1.05;;;25.50;67.40;;;;;;4957861;29;20207;-67
2023/06/28 08:32:28;;;;;;;0.95;0.95;;;25.30;68.60;;;;;;4957760;29;20207;-67
2023/06/28 08:34:56;;;;;;;1.52;1.15;;;25.20;69.60;;;;;;4957403;29;20702;-67
2023/06/28 08:37:23;;;;;;;1.77;0.90;;;25.10;67.40;;;;;;4957519;29;20224;-67
2023/06/28 08:39:50;;;;;;;1.00;0.90;;;25.00;67.80;;;;;;4957580;29;20203;-68
2023/06/28 08:42:18;;;;;;;2.25;1.30;;;25.10;73.30;;;;;;4957401;29;20204;-68
2023/06/28 08:44:48;;;;;;;1.38;1.27;;;25.30;72.60;;;;;;4957600;29;20203;-69
2023/06/28 08:47:15;;;;;;;2.58;1.27;;;25.50;67.50;;;;;;4957207;29;20235;-69
2023/06/28 08:49:43;;;;;;;2.72;1.45;;;25.10;65.30;;;;;;4957345;29;20238;-69
2023/06/28 08:52:11;;;;;;;1.20;1.08;;;24.40;70.00;;;;;;4957374;29;20207;-69
2023/06/28 08:54:39;;;;;;;1.10;1.10;;;24.20;77.90;;;;;;4957207;29;20199;-69
2023/06/28 08:57:07;;;;;;;2.28;1.33;;;24.20;74.20;;;;;;4957158;29;20219;-69
2023/06/28 08:59:33;;;;;;;1.67;1.00;;;24.00;75.70;;;;;;4956944;29;20218;-69
2023/06/28 09:02:01;;;;;;;3.95;1.15;;;23.90;75.30;;;;;;4957025;28;20204;-69
2023/06/28 09:04:28;;;;;;;2.63;1.17;;;23.90;74.10;;;;;;4956746;29;20679;-69
2023/06/28 09:06:57;;;;;;;2.97;1.10;;;24.00;80.40;;;;;;4956837;29;20231;-69
2023/06/28 09:09:26;;;;;;;2.35;1.40;;;24.00;83.80;;;;;;4956971;29;20211;-69
2023/06/28 09:11:53;;;;;;;1.83;1.48;;;24.20;84.60;;;;;;4956702;29;20706;-69
2023/06/28 09:14:19;;;;;;;1.88;1.45;;;24.20;87.20;;;;;;4956876;29;20207;-69
2023/06/28 09:16:46;;;;;;;1.73;1.13;;;24.40;80.90;;;;;;4956761;29;20226;-69
2023/06/28 09:19:13;;;;;;;1.33;1.33;;;24.30;81.30;;;;;;4956741;29;20211;-69
2023/06/28 09:21:41;;;;;;;1.23;1.13;;;24.40;76.60;;;;;;4956680;29;20203;-69
2023/06/28 09:24:11;;;;;;;1.30;1.30;;;24.30;75.40;;;;;;4956592;29;20210;-69
2023/06/28 09:26:42;;;;;;;1.65;1.20;;;24.40;75.60;;;;;;4956450;29;20231;-69
2023/06/28 09:29:11;;;;;;;2.13;1.17;;;24.60;74.20;;;;;;4956560;29;20188;-69
2023/06/28 09:31:40;;;;;;;2.53;0.90;;;24.80;71.00;;;;;;4956527;29;20210;-67
2023/06/28 09:34:07;;;;;;;1.10;1.00;;;24.90;69.60;;;;;;4956487;29;20242;-67
2023/06/28 09:36:35;;;;;;;1.10;1.00;;;24.90;69.50;;;;;;4956087;29;20223;-68
2023/06/28 09:39:04;;;;;;;1.55;1.45;;;25.00;69.10;;;;;;4956090;29;20218;-67
2023/06/28 09:41:39;;;;;;;0.98;0.98;;;25.10;71.00;;;;;;4956374;29;20618;-69
2023/06/28 09:44:09;;;;;;;0.95;0.90;;;25.20;71.50;;;;;;4956359;29;20197;-69
2023/06/28 09:46:36;;;;;;;1.13;0.65;;;25.30;67.30;;;;;;4956477;29;20224;-69
2023/06/28 09:49:02;;;;;;;1.40;1.15;;;25.20;69.10;;;;;;4956192;29;20218;-68
2023/06/28 09:51:29;;;;;;;0.93;0.90;;;25.20;67.80;;;;;;4956103;29;20216;-68
2023/06/28 09:53:58;;;;;;;1.30;1.00;;;25.30;71.00;;;;;;4955768;29;20667;-69
2023/06/28 09:56:35;;;;;;;2.15;1.00;;;25.50;72.80;;;;;;4955968;29;20211;-68
2023/06/28 09:59:06;;;;;;;2.65;1.38;;;25.60;67.30;;;;;;4955743;29;20745;-68
2023/06/28 10:01:35;;;;;;;1.20;1.10;;;25.10;67.60;;;;;;4956513;29;20188;-68
2023/06/28 10:04:01;;;;;;;1.05;1.02;;;24.60;70.70;;;;;;4955987;29;20207;-68
2023/06/28 10:06:31;;;;;;;1.00;1.00;;;24.50;73.50;;;;;;4955871;29;20234;-68
2023/06/28 10:08:59;;;;;;;2.28;1.10;;;24.50;72.60;;;;;;4956315;29;20223;-68
2023/06/28 10:11:29;;;;;;;0.98;0.98;;;24.50;74.90;;;;;;4956382;29;20203;-69
2023/06/28 10:13:56;;;;;;;1.10;1.00;;;24.50;72.30;;;;;;4955439;28;20207;-68
2023/06/28 10:16:30;;;;;;;2.20;1.40;;;24.20;72.30;;;;;;4955804;29;20204;-68
2023/06/28 10:18:57;;;;;;;1.58;1.38;;;23.70;73.90;;;;;;4955835;29;20180;-68
2023/06/28 10:21:23;;;;;;;1.98;1.35;;;23.30;81.70;;;;;;4955402;29;20207;-68
2023/06/28 10:23:51;;;;;;;1.10;1.10;;;23.10;86.40;;;;;;4955744;29;20230;-68
2023/06/28 10:26:20;;;;;;;2.30;1.25;;;23.10;91.20;;;;;;4955272;29;20250;-68
2023/06/28 10:28:48;;;;;;;1.08;0.90;;;23.20;93.10;;;;;;4955247;29;20698;-68
2023/06/28 10:31:15;;;;;;;1.55;1.33;;;23.60;95.70;;;;;;4955603;29;20203;-68
2023/06/28 10:33:44;;;;;;;1.23;1.13;;;24.00;92.80;;;;;;4955309;29;20204;-68
2023/06/28 10:36:12;;;;;;;1.67;1.27;;;24.60;89.50;;;;;;4955523;29;20211;-68
2023/06/28 10:38:42;;;;;;;1.42;0.93;;;24.90;86.40;;;;;;4955527;29;20195;-68
2023/06/28 10:41:09;;;;;;;3.40;1.20;;;25.10;81.70;;;;;;4955596;29;20254;-68
2023/06/28 10:43:36;;;;;;;1.33;1.23;;;24.90;74.20;;;;;;4955468;29;20203;-68
2023/06/28 10:46:03;;;;;;;1.15;0.90;;;24.80;75.70;;;;;;4955472;29;20213;-68
2023/06/28 10:48:31;;;;;;;2.22;1.20;;;24.40;81.30;;;;;;4955318;29;20223;-68
2023/06/28 10:51:01;;;;;;;1.70;1.23;;;24.30;84.10;;;;;;4955407;29;20211;-68
2023/06/28 10:53:29;;;;;;;1.45;1.35;;;24.30;81.00;;;;;;4955191;29;20187;-68
2023/06/28 10:56:10;;;;;;;1.38;1.35;;;24.20;85.20;;;;;;4954939;29;20671;-68
2023/06/28 10:58:38;;;;;;;2.20;1.40;;;24.10;83.90;;;;;;4955330;29;20199;-68
2023/06/28 11:01:07;;;;;;;3.35;1.40;;;24.10;83.90;;;;;;4955277;29;20203;-68
2023/06/28 11:03:41;;;;;;;3.50;1.45;;;23.80;90.50;;;;;;4954948;29;20642;-69
2023/06/28 11:06:11;;;;;;;1.38;1.30;;;23.80;92.00;;;;;;4955461;29;20214;-69
2023/06/28 11:08:40;;;;;;;1.10;1.00;;;24.00;90.30;;;;;;4955153;29;20223;-68
2023/06/28 11:11:08;;;;;;;1.00;1.00;;;23.90;90.00;;;;;;4955255;29;20690;-68
2023/06/28 11:13:46;;;;;;;1.30;1.30;;;23.80;89.70;;;;;;4955045;29;20690;-68
2023/06/28 11:16:16;;;;;;;1.02;0.95;;;23.80;90.20;;;;;;4955463;29;20278;-67
2023/06/28 11:18:43;;;;;;;1.83;1.40;;;23.70;91.40;;;;;;4955163;29;20204;-68
2023/06/28 11:21:16;;;;;;;1.00;1.00;;;23.70;93.50;;;;;;4954842;29;20671;-67
2023/06/28 11:23:44;;;;;;;1.50;1.40;;;23.80;95.90;;;;;;4955176;29;20203;-67
2023/06/28 11:26:14;;;;;;;0.93;0.93;;;24.00;93.60;;;;;;4956929;28;20211;-67
2023/06/28 11:28:48;;;;;;;2.00;1.17;;;24.30;92.40;;;;;;4959114;29;20211;-68
2023/06/28 11:31:16;;;;;;;1.10;1.10;;;24.60;90.00;;;;;;4958758;29;20192;-68
2023/06/28 11:33:44;;;;;;;2.90;1.15;;;24.90;85.40;;;;;;4958653;29;20203;-68
2023/06/28 11:36:12;;;;;;;1.92;1.40;;;24.80;78.90;;;;;;4958528;29;20207;-68
2023/06/28 11:38:43;;;;;;;2.38;1.73;;;24.50;84.40;;;;;;4958571;29;20280;-68
2023/06/28 11:41:10;;;;;;;1.40;1.10;;;24.30;82.30;;;;;;4958661;29;20188;-68
2023/06/28 11:43:36;;;;;;;1.38;1.10;;;23.90;90.60;;;;;;4958292;29;20663;-68
2023/06/28 11:46:04;;;;;;;1.48;1.30;;;23.90;90.90;;;;;;4958427;29;20203;-68
2023/06/28 11:48:31;;;;;;;2.22;1.15;;;23.90;94.40;;;;;;4958303;29;20254;-68
2023/06/28 11:50:58;;;;;;;1.25;1.15;;;24.00;95.40;;;;;;4958484;29;20207;-68
2023/06/28 11:53:27;;;;;;;1.10;1.10;;;24.00;93.10;;;;;;4958399;29;20671;-68
2023/06/28 11:55:55;;;;;;;2.60;1.50;;;24.10;94.50;;;;;;4958246;29;20211;-68
2023/06/28 11:58:30;;;;;;;1.38;1.27;;;24.20;94.50;;;;;;4958125;29;20215;-68
2023/06/28 12:00:56;;;;;;;1.45;1.42;;;24.30;93.50;;;;;;4957748;29;20242;-67
2023/06/28 12:03:33;;;;;;;1.70;1.60;;;24.50;92.10;;;;;;4958099;29;20210;-67
2023/06/28 12:06:01;;;;;;;1.60;1.40;;;24.40;87.10;;;;;;4958074;29;20595;-67
2023/06/28 12:08:32;;;;;;;1.23;1.13;;;24.40;92.20;;;;;;4958331;29;20702;-68
2023/06/28 12:11:01;;;;;;;1.10;1.10;;;24.70;90.00;;;;;;4958213;29;20192;-68
2023/06/28 12:13:28;;;;;;;3.75;1.38;;;25.00;92.80;;;;;;4957996;29;20211;-68
2023/06/28 12:15:56;;;;;;;1.20;1.10;;;25.40;89.50;;;;;;4957963;29;20298;-69
2023/06/28 12:18:50;;;;;;;1.00;1.00;;;25.60;84.50;;;;;;4958390;29;20230;-68
2023/06/28 12:21:21;;;;;;;1.50;1.42;;;25.70;85.40;;;;;;4958129;29;20214;-68
2023/06/28 12:23:48;;;;;;;1.02;1.02;;;25.60;86.20;;;;;;4957539;29;20238;-68
2023/06/28 12:26:16;;;;;;;0.82;0.82;;;25.60;79.60;;;;;;4957626;29;20207;-68
2023/06/28 12:28:47;;;;;;;1.20;1.05;;;25.30;79.10;;;;;;4957300;29;20572;-69
2023/06/28 12:31:14;;;;;;;1.77;1.25;;;25.10;81.20;;;;;;4957729;29;20192;-69
2023/06/28 12:33:41;;;;;;;1.85;1.23;;;25.00;81.60;;;;;;4957511;29;20566;-69
2023/06/28 12:36:07;;;;;;;1.20;1.10;;;25.00;82.10;;;;;;4957098;28;20204;-71
2023/06/28 12:38:34;;;;;;;1.10;1.00;;;24.90;82.40;;;;;;4957428;29;20227;-70
2023/06/28 12:41:07;;;;;;;1.05;1.05;;;24.90;80.80;;;;;;4957526;29;20199;-69
2023/06/28 12:43:35;;;;;;;1.02;1.02;;;24.80;86.40;;;;;;4957327;29;20195;-70
2023/06/28 12:46:03;;;;;;;1.02;1.02;;;24.90;88.60;;;;;;4957319;29;20203;-69
2023/06/28 12:48:30;;;;;;;1.05;1.05;;;24.90;88.80;;;;;;4957122;29;20223;-69
2023/06/28 12:50:57;;;;;;;0.95;0.95;;;25.00;92.00;;;;;;4956805;29;20671;-69
2023/06/28 12:53:23;;;;;;;1.92;1.20;;;25.10;91.80;;;;;;4957150;29;20218;-69
2023/06/28 12:55:50;;;;;;;1.00;1.00;;;25.20;90.70;;;;;;4957171;29;20203;-71
2023/06/28 12:58:17;;;;;;;1.10;1.00;;;25.30;87.20;;;;;;4957265;29;20271;-70
2023/06/28 13:00:47;;;;;;;1.10;1.10;;;25.50;82.20;;;;;;4956881;29;20660;-68
2023/06/28 13:03:14;;;;;;;1.40;1.30;;;25.60;84.90;;;;;;4957020;29;20594;-68
2023/06/28 13:05:41;;;;;;;1.05;1.02;;;25.70;81.90;;;;;;4957215;29;20199;-69
2023/06/28 13:08:10;;;;;;;1.15;1.05;;;25.70;81.20;;;;;;4958733;29;20259;-69
2023/06/28 13:10:37;;;;;;;1.98;1.17;;;25.70;81.30;;;;;;4957827;29;20283;-69
2023/06/28 13:13:04;;;;;;;1.00;1.00;;;25.70;81.10;;;;;;4957619;29;20291;-70
2023/06/28 13:15:31;;;;;;;0.98;0.98;;;25.70;82.70;;;;;;4957279;29;20203;-70
2023/06/28 13:17:59;;;;;;;1.05;1.05;;;25.90;78.90;;;;;;4957252;29;20246;-70
2023/06/28 13:20:26;;;;;;;1.20;1.10;;;25.70;78.40;;;;;;4957483;29;20574;-70
2023/06/28 13:22:55;;;;;;;1.30;1.15;;;25.60;79.80;;;;;;4959786;29;20207;-70
2023/06/28 13:25:23;;;;;;;1.30;1.20;;;25.50;86.20;;;;;;4961784;29;20192;-70
2023/06/28 13:27:50;;;;;;;1.77;1.65;;;25.60;85.40;;;;;;4961243;29;20234;-71
2023/06/28 13:30:17;;;;;;;1.25;1.15;;;25.40;90.00;;;;;;4960617;29;20671;-71
2023/06/28 13:32:44;;;;;;;1.13;1.13;;;25.30;90.20;;;;;;4960893;29;20203;-71
2023/06/28 13:35:13;;;;;;;1.38;1.20;;;25.30;90.90;;;;;;4960706;29;20686;-70
2023/06/28 13:37:40;;;;;;;1.05;1.05;;;25.40;90.40;;;;;;4962602;29;20252;-70
2023/06/28 13:40:09;;;;;;;1.42;1.40;;;25.70;91.00;;;;;;4963772;29;20692;-70
2023/06/28 13:42:37;;;;;;;1.48;1.38;;;25.80;88.30;;;;;;4963682;29;20211;-70
2023/06/28 13:45:05;;;;;;;1.63;1.30;;;25.60;83.40;;;;;;4961424;29;20219;-70
2023/06/28 13:47:32;;;;;;;1.00;1.00;;;25.40;89.00;;;;;;4960391;28;20235;-71
2023/06/28 13:49:59;;;;;;;1.20;1.10;;;25.20;90.30;;;;;;4960773;29;20220;-71
2023/06/28 13:52:27;;;;;;;1.25;1.25;;;25.10;91.30;;;;;;4960230;29;20572;-71
2023/06/28 13:54:54;;;;;;;1.00;1.00;;;25.20;93.60;;;;;;4960368;29;20191;-69
2023/06/28 13:57:23;;;;;;;1.10;1.10;;;25.30;90.70;;;;;;4960223;29;20220;-69
2023/06/28 13:59:50;;;;;;;1.10;1.10;;;25.10;86.70;;;;;;4960392;29;20214;-68
2023/06/28 14:02:17;;;;;;;1.00;1.00;;;24.80;90.70;;;;;;4960726;29;20211;-68
2023/06/28 14:04:44;;;;;;;1.73;1.13;;;24.70;92.50;;;;;;4957085;29;20203;-69
2023/06/28 14:07:11;;;;;;;1.23;1.20;;;24.70;93.60;;;;;;4958711;29;20227;-69
2023/06/28 14:09:39;;;;;;;1.05;0.93;;;24.80;96.50;;;;;;4959114;29;20235;-69
2023/06/28 14:12:07;;;;;;;1.30;1.20;;;25.10;92.80;;;;;;4960786;29;20288;-69
2023/06/28 14:14:34;;;;;;;1.20;1.10;;;25.10;90.30;;;;;;4959895;29;20235;-69
2023/06/28 14:17:01;;;;;;;1.23;1.13;;;25.30;91.20;;;;;;4957072;29;20259;-68
2023/06/28 14:19:28;;;;;;;1.10;1.10;;;25.40;87.80;;;;;;4955882;29;20227;-69
2023/06/28 14:21:54;;;;;;;1.10;1.00;;;25.60;91.70;;;;;;4955800;29;20199;-69
2023/06/28 14:24:21;;;;;;;1.08;1.00;;;25.90;88.40;;;;;;4955802;29;20203;-69
2023/06/28 14:26:52;;;;;;;1.80;1.15;;;25.90;85.70;;;;;;4955311;29;20571;-69
2023/06/28 14:29:19;;;;;;;1.40;1.00;;;25.80;83.70;;;;;;4955282;29;20215;-69
2023/06/28 14:31:45;;;;;;;1.30;1.27;;;25.80;84.20;;;;;;4955614;29;20574;-68
2023/06/28 14:34:12;;;;;;;1.10;1.02;;;25.90;85.60;;;;;;4955669;29;20211;-69
2023/06/28 14:36:39;;;;;;;1.27;1.27;;;25.70;80.80;;;;;;4955719;29;20234;-69
2023/06/28 14:39:06;;;;;;;1.20;1.02;;;25.60;83.20;;;;;;4955826;29;20195;-69
2023/06/28 14:41:32;;;;;;;1.10;1.10;;;25.70;82.50;;;;;;4957444;29;20212;-68
2023/06/28 14:44:00;;;;;;;1.13;1.10;;;25.70;86.00;;;;;;4959289;29;20215;-68
2023/06/28 14:46:27;;;;;;;1.05;0.98;;;25.70;86.90;;;;;;4958148;29;20203;-68
2023/06/28 14:48:54;;;;;;;1.05;0.95;;;25.80;86.10;;;;;;4955578;29;20274;-69
2023/06/28 14:51:21;;;;;;;0.70;0.70;;;26.10;86.60;;;;;;4955514;29;20203;-69
2023/06/28 14:53:47;;;;;;;2.85;1.10;;;26.40;89.40;;;;;;4955030;29;20572;-69
2023/06/28 14:56:14;;;;;;;1.80;1.70;;;26.40;79.90;;;;;;4955305;29;20208;-69
2023/06/28 14:58:41;;;;;;;2.55;1.58;;;26.10;81.10;;;;;;4954937;29;20595;-69
2023/06/28 15:01:09;;;;;;;2.08;1.50;;;25.80;83.40;;;;;;4958796;28;20210;-69
2023/06/28 15:03:35;;;;;;;5.18;1.30;;;25.20;85.00;;;;;;4958861;29;20690;-69
2023/06/28 15:06:02;;;;;;;2.55;1.85;;;24.60;90.70;;;;;;4959150;29;20207;-69
2023/06/28 15:08:30;;;;;;;1.42;1.23;;;24.30;96.70;;;;;;4959027;29;20230;-69
2023/06/28 15:10:56;;;;;;;2.13;1.35;;;24.30;99.90;;;;;;4959422;29;20234;-69
2023/06/28 15:13:23;;;;;;;1.58;1.48;;;24.10;95.60;;;;;;4959702;29;20210;-68
2023/06/28 15:15:50;;;;;;;1.52;1.42;;;24.10;98.10;;;;;;4959082;29;20203;-68
2023/06/28 15:18:18;;;;;;;1.40;1.30;;;24.10;99.90;;;;;;4962800;29;20228;-71
2023/06/28 15:20:45;;;;;;;1.70;1.30;;;24.10;99.10;;;;;;4959153;29;20208;-69
2023/06/28 15:23:15;;;;;;;1.20;1.20;;;24.10;99.90;;;;;;4958874;29;20552;-70
2023/06/28 15:25:42;;;;;;;1.30;1.30;;;24.30;99.90;;;;;;4958621;29;20551;-70
2023/06/28 15:28:09;;;;;;;3.20;1.00;;;24.40;98.70;;;;;;4958396;29;20220;-70
2023/06/28 15:30:36;;;;;;;0.98;0.98;;;24.50;99.90;;;;;;4958880;29;20223;-70
2023/06/28 15:33:03;;;;;;;1.25;1.25;;;24.70;99.90;;;;;;4958666;29;20203;-71
2023/06/28 15:35:31;;;;;;;1.20;1.10;;;24.90;98.00;;;;;;4958617;29;20207;-70
2023/06/28 15:37:58;;;;;;;1.55;1.00;;;25.00;97.20;;;;;;4958426;29;20224;-71
2023/06/28 15:40:25;;;;;;;0.90;0.90;;;25.20;94.10;;;;;;4958461;29;20238;-70
2023/06/28 15:42:51;;;;;;;1.00;1.00;;;25.30;92.70;;;;;;4958474;29;20238;-71
2023/06/28 15:45:18;;;;;;;1.15;1.00;;;25.30;90.60;;;;;;4958192;29;20691;-71
2023/06/28 15:47:45;;;;;;;1.00;1.00;;;25.30;91.00;;;;;;4958373;29;20234;-71
2023/06/28 15:50:12;;;;;;;1.10;1.10;;;25.10;93.20;;;;;;4958337;29;20220;-71
2023/06/28 15:52:40;;;;;;;1.10;1.00;;;25.10;92.40;;;;;;4958294;29;20203;-70
2023/06/28 15:55:07;;;;;;;0.75;0.75;;;25.30;95.30;;;;;;4958202;29;20214;-71
2023/06/28 15:57:34;;;;;;;0.82;0.82;;;25.40;97.40;;;;;;4958205;29;20230;-71
2023/06/28 16:00:01;;;;;;;0.95;0.95;;;25.60;97.20;;;;;;4957791;29;20207;-71
2023/06/28 16:02:28;;;;;;;0.80;0.80;;;25.60;95.50;;;;;;4957788;29;20701;-71
2023/06/28 16:04:54;;;;;;;0.88;0.88;;;25.60;95.10;;;;;;4957999;29;20211;-71
2023/06/28 16:07:21;;;;;;;0.90;0.90;;;25.60;94.70;;;;;;4958071;29;20231;-70
2023/06/28 16:09:49;;;;;;;1.15;0.85;;;25.60;93.30;;;;;;4958113;29;20223;-72
2023/06/28 16:12:16;;;;;;;0.95;0.95;;;25.60;90.20;;;;;;4957634;28;20698;-72
2023/06/28 16:14:43;;;;;;;1.02;1.02;;;25.50;86.90;;;;;;4958122;29;20208;-69
2023/06/28 16:17:10;;;;;;;0.93;0.93;;;25.30;87.50;;;;;;4957877;29;20628;-70
2023/06/28 16:19:36;;;;;;;0.80;0.80;;;25.30;90.30;;;;;;4957930;29;20255;-70
2023/06/28 16:22:04;;;;;;;1.40;1.00;;;25.40;92.70;;;;;;4957956;29;20211;-70
2023/06/28 16:24:30;;;;;;;1.33;1.15;;;25.30;91.40;;;;;;4957838;29;20207;-70
2023/06/28 16:26:58;;;;;;;1.08;1.08;;;25.20;92.40;;;;;;4957939;29;20231;-70
2023/06/28 16:29:25;;;;;;;0.90;0.90;;;25.00;90.90;;;;;;4957672;29;20773;-69
2023/06/28 16:31:52;;;;;;;1.20;1.20;;;24.90;92.70;;;;;;4957536;29;20698;-70
2023/06/28 16:34:19;;;;;;;1.15;1.10;;;24.80;93.10;;;;;;4958077;29;20204;-71
2023/06/28 16:36:45;;;;;;;1.27;1.27;;;24.60;94.90;;;;;;4957613;29;20239;-70
2023/06/28 16:39:12;;;;;;;1.00;1.00;;;24.50;96.60;;;;;;4957485;29;20254;-70
2023/06/28 16:41:39;;;;;;;1.88;1.10;;;24.40;96.60;;;;;;4957223;29;20668;-70
2023/06/28 16:44:07;;;;;;;1.42;1.20;;;24.40;98.10;;;;;;4957494;29;20207;-70
2023/06/28 16:46:34;;;;;;;1.23;1.13;;;24.20;97.90;;;;;;4957209;29;20231;-70
2023/06/28 16:49:02;;;;;;;2.38;1.27;;;24.00;99.60;;;;;;4957234;29;20204;-70